Time;durP1;ratioP1;P1;durP2;ratioP2;P2;SDS_P1;SDS_P2;PMS_P1;PMS_P2;Temp;Humidity;BMP_temperature;BMP_pressure;BME280_temperature;BME280_humidity;BME280_pressure;Samples;Min_cycle;Max_cycle;Signal;HPM_P1;HPM_P2
2021/12/10 00:01:36;;;;;;;;;;;15.40;99.90;;;;;;4994932;28;958;-51
2021/12/10 00:04:05;;;;;;;;;;;15.30;99.90;;;;;;4978873;28;893;-51
2021/12/10 00:06:36;;;;;;;;;;;15.30;99.90;;;;;;4997793;28;865;-51
2021/12/10 00:09:09;;;;;;;;;;;15.30;99.90;;;;;;5012408;28;1907;-51
2021/12/10 00:11:47;;;;;;;;;;;15.30;99.90;;;;;;4997867;28;1454;-51
2021/12/10 00:14:15;;;;;;;;;;;15.20;99.90;;;;;;4999061;28;1018;-51
2021/12/10 00:16:44;;;;;;;;;;;15.20;99.90;;;;;;4998841;28;915;-51
2021/12/10 00:21:58;;;;;;;;;;;15.10;99.90;;;;;;4999072;28;955;-51
2021/12/10 00:24:28;;;;;;;;;;;15.10;99.90;;;;;;5014955;28;915;-51
2021/12/10 00:26:54;;;;;;;;;;;15.00;99.90;;;;;;4999231;28;959;-51
2021/12/10 00:29:48;;;;;;;;;;;15.00;99.90;;;;;;5000399;28;1957;-51
2021/12/10 00:32:24;;;;;;;;;;;15.00;99.90;;;;;;5000214;28;847;-51
2021/12/10 00:34:52;;;;;;;;;;;15.00;99.90;;;;;;5018664;28;892;-51
2021/12/10 00:37:22;;;;;;;;;;;15.00;99.90;;;;;;4996824;28;956;-51
2021/12/10 00:39:56;;;;;;;;;;;14.90;99.90;;;;;;4999157;28;865;-51
2021/12/10 00:42:25;;;;;;;;;;;14.90;99.90;;;;;;4998531;28;952;-51
2021/12/10 00:44:59;;;;;;;;;;;14.90;99.90;;;;;;5000340;28;944;-52
2021/12/10 00:47:31;;;;;;;;;;;14.80;99.90;;;;;;5000217;28;935;-51
2021/12/10 00:49:57;;;;;;;;;;;14.80;99.90;;;;;;4999211;28;1964;-51
2021/12/10 00:52:23;;;;;;;;;;;14.70;99.90;;;;;;4998665;28;1470;-51
2021/12/10 00:54:50;;;;;;;;;;;14.70;99.90;;;;;;4999605;28;1188;-51
2021/12/10 00:57:17;;;;;;;;;;;14.70;99.90;;;;;;4999750;28;860;-51
2021/12/10 00:59:46;;;;;;;;;;;14.70;99.90;;;;;;4999865;28;869;-51
2021/12/10 01:02:15;;;;;;;;;;;14.60;99.90;;;;;;4999965;28;899;-52
2021/12/10 01:04:43;;;;;;;;;;;14.60;99.90;;;;;;5000049;28;872;-53
2021/12/10 01:07:12;;;;;;;;;;;14.60;99.90;;;;;;4999162;28;791;-52
2021/12/10 01:09:43;;;;;;;;;;;14.50;99.90;;;;;;4998583;28;1910;-53
2021/12/10 01:12:12;;;;;;;;;;;14.50;99.90;;;;;;4998191;28;1408;-53
2021/12/10 01:15:20;;;;;;;;;;;14.50;99.90;;;;;;4999656;28;881;-53
2021/12/10 01:23:47;;;;;;;;;;;14.50;99.90;;;;;;4999669;28;834;-53
2021/12/10 01:29:06;;;;;;;;;;;14.40;99.90;;;;;;5016888;28;1969;-52
2021/12/10 01:31:32;;;;;;;;;;;14.40;99.90;;;;;;5017480;28;865;-52
2021/12/10 01:33:59;;;;;;;;;;;14.40;99.90;;;;;;5017201;28;1050;-53
2021/12/10 01:36:25;;;;;;;;;;;14.30;99.90;;;;;;5016253;28;928;-53
2021/12/10 01:38:54;;;;;;;;;;;14.20;99.90;;;;;;5017003;28;881;-51
2021/12/10 01:41:23;;;;;;;;;;;14.20;99.90;;;;;;5002621;28;1404;-51
2021/12/10 01:43:51;;;;;;;;;;;14.20;99.90;;;;;;4999293;28;855;-51
2021/12/10 01:46:27;;;;;;;;;;;14.20;99.90;;;;;;4998001;28;1078;-51
2021/12/10 01:48:55;;;;;;;;;;;14.10;99.90;;;;;;4972042;28;1899;-53
2021/12/10 01:51:24;;;;;;;;;;;14.10;99.90;;;;;;4977955;28;1148;-51
2021/12/10 01:53:52;;;;;;;;;;;14.10;99.90;;;;;;4979328;28;1011;-51
2021/12/10 01:56:23;;;;;;;;;;;14.10;99.90;;;;;;4977159;28;946;-53
2021/12/10 01:58:50;;;;;;;;;;;14.10;99.90;;;;;;4953863;28;881;-52
2021/12/10 02:01:18;;;;;;;;;;;14.00;99.90;;;;;;4977811;28;1022;-52
2021/12/10 02:03:47;;;;;;;;;;;14.00;99.90;;;;;;4945435;28;932;-53
2021/12/10 02:06:15;;;;;;;;;;;14.00;99.90;;;;;;4976940;28;1339;-53
2021/12/10 02:08:42;;;;;;;;;;;13.90;99.90;;;;;;4938929;29;1918;-53
2021/12/10 02:11:09;;;;;;;;;;;14.00;99.90;;;;;;4906898;29;1346;-52
2021/12/10 02:13:35;;;;;;;;;;;13.90;99.90;;;;;;4939055;29;1698;-53
2021/12/10 02:16:03;;;;;;;;;;;13.90;99.90;;;;;;4938377;29;934;-53
2021/12/10 02:18:30;;;;;;;;;;;13.90;99.90;;;;;;4937674;29;1047;-53
2021/12/10 02:21:21;;;;;;;;;;;13.90;99.90;;;;;;4938524;29;1062;-53
2021/12/10 02:23:55;;;;;;;;;;;13.80;99.90;;;;;;4862809;29;1125;-52
2021/12/10 02:26:23;;;;;;;;;;;13.80;99.90;;;;;;4872967;29;962;-52
2021/12/10 02:28:49;;;;;;;;;;;13.80;99.90;;;;;;4898277;29;1915;-53
2021/12/10 02:31:15;;;;;;;;;;;13.80;99.90;;;;;;4899986;29;1042;-53
2021/12/10 02:33:44;;;;;;;;;;;13.80;99.90;;;;;;4899756;29;876;-52
2021/12/10 02:36:12;;;;;;;;;;;13.80;99.90;;;;;;4899826;29;1129;-53
2021/12/10 02:38:42;;;;;;;;;;;13.70;99.90;;;;;;4902572;29;909;-52
2021/12/10 02:41:08;;;;;;;;;;;13.70;99.90;;;;;;4936882;29;934;-53
2021/12/10 02:43:36;;;;;;;;;;;13.70;99.90;;;;;;4936850;29;817;-53
2021/12/10 02:46:04;;;;;;;;;;;13.70;99.90;;;;;;4936876;29;883;-53
2021/12/10 02:48:32;;;;;;;;;;;13.70;99.90;;;;;;4936640;29;1911;-53
2021/12/10 02:51:00;;;;;;;;;;;13.60;99.90;;;;;;4936388;29;906;-53
2021/12/10 02:53:29;;;;;;;;;;;13.70;99.90;;;;;;4936671;29;1060;-53
2021/12/10 02:55:57;;;;;;;;;;;13.60;99.90;;;;;;4919248;29;1180;-53
2021/12/10 02:58:24;;;;;;;;;;;13.60;99.90;;;;;;4919160;29;930;-53
2021/12/10 03:00:54;;;;;;;;;;;13.60;99.90;;;;;;4955688;28;1165;-53
2021/12/10 03:03:24;;;;;;;;;;;13.60;99.90;;;;;;5016043;28;917;-53
2021/12/10 03:05:51;;;;;;;;;;;13.60;99.90;;;;;;4995972;28;925;-54
2021/12/10 03:08:19;;;;;;;;;;;13.50;99.90;;;;;;5010948;28;1793;-53
2021/12/10 03:10:46;;;;;;;;;;;13.50;99.90;;;;;;4995849;28;1906;-53
2021/12/10 03:13:12;;;;;;;;;;;13.50;99.90;;;;;;5047268;28;973;-54
2021/12/10 03:15:38;;;;;;;;;;;13.50;99.90;;;;;;5015431;28;883;-53
2021/12/10 03:18:08;;;;;;;;;;;13.50;99.90;;;;;;5013810;28;928;-54
2021/12/10 03:20:34;;;;;;;;;;;13.50;99.90;;;;;;4994299;28;866;-53
2021/12/10 03:23:01;;;;;;;;;;;13.40;99.90;;;;;;4992706;28;897;-53
2021/12/10 03:25:27;;;;;;;;;;;13.40;99.90;;;;;;5012173;28;906;-53
2021/12/10 03:27:53;;;;;;;;;;;13.40;99.90;;;;;;5003150;28;797;-53
2021/12/10 03:30:25;;;;;;;;;;;13.40;99.90;;;;;;5015581;28;1915;-53
2021/12/10 03:32:52;;;;;;;;;;;13.40;99.90;;;;;;5014434;28;1337;-53
2021/12/10 03:35:23;;;;;;;;;;;13.40;99.90;;;;;;4995248;28;1010;-53
2021/12/10 03:37:50;;;;;;;;;;;13.30;99.90;;;;;;4995061;28;993;-53
2021/12/10 03:40:21;;;;;;;;;;;13.30;99.90;;;;;;4997960;28;845;-53
2021/12/10 03:42:50;;;;;;;;;;;13.30;99.90;;;;;;5032783;28;943;-52
2021/12/10 03:45:16;;;;;;;;;;;13.30;99.90;;;;;;5001871;28;920;-52
2021/12/10 03:47:44;;;;;;;;;;;13.30;99.90;;;;;;5001485;28;1131;-52
2021/12/10 03:50:12;;;;;;;;;;;13.30;99.90;;;;;;5016166;28;1915;-53
2021/12/10 03:52:38;;;;;;;;;;;13.30;99.90;;;;;;5001140;28;809;-53
2021/12/10 03:55:06;;;;;;;;;;;13.30;99.90;;;;;;5008719;28;1116;-52
2021/12/10 03:57:33;;;;;;;;;;;13.20;99.90;;;;;;5003538;28;868;-52
2021/12/10 04:00:01;;;;;;;;;;;13.20;99.90;;;;;;5019749;28;861;-53
2021/12/10 04:02:28;;;;;;;;;;;13.20;99.90;;;;;;5020373;28;869;-53
2021/12/10 04:05:15;;;;;;;;;;;13.20;99.90;;;;;;5020529;28;762;-53
2021/12/10 04:07:42;;;;;;;;;;;13.20;99.90;;;;;;4983904;28;1064;-53
2021/12/10 04:10:09;;;;;;;;;;;13.10;99.90;;;;;;5036301;28;1975;-53
2021/12/10 04:12:35;;;;;;;;;;;13.10;99.90;;;;;;5036127;28;1255;-53
2021/12/10 04:15:06;;;;;;;;;;;13.10;99.90;;;;;;5020223;28;1401;-53
2021/12/10 04:17:33;;;;;;;;;;;13.10;99.90;;;;;;5038327;28;891;-53
2021/12/10 04:19:59;;;;;;;;;;;13.10;99.90;;;;;;5028349;28;1000;-53
2021/12/10 04:22:32;;;;;;;;;;;13.00;99.90;;;;;;5019519;28;917;-53
2021/12/10 04:25:00;;;;;;;;;;;13.10;99.90;;;;;;5019617;28;831;-52
2021/12/10 04:27:26;;;;;;;;;;;13.00;99.90;;;;;;4997468;28;917;-53
2021/12/10 04:29:56;;;;;;;;;;;13.00;99.90;;;;;;5016719;28;1910;-53
2021/12/10 04:32:23;;;;;;;;;;;13.00;99.90;;;;;;5018601;28;1054;-53
2021/12/10 04:34:52;;;;;;;;;;;13.00;99.90;;;;;;5018529;28;838;-53
2021/12/10 04:37:18;;;;;;;;;;;13.00;99.90;;;;;;4969967;28;901;-53
2021/12/10 04:39:47;;;;;;;;;;;12.90;99.90;;;;;;5018489;28;1152;-53
2021/12/10 04:42:15;;;;;;;;;;;12.90;99.90;;;;;;5013942;28;950;-53
2021/12/10 04:44:42;;;;;;;;;;;12.90;99.90;;;;;;4981641;28;901;-53
2021/12/10 04:47:09;;;;;;;;;;;12.90;99.90;;;;;;5018447;28;902;-53
2021/12/10 04:49:37;;;;;;;;;;;12.90;99.90;;;;;;5021002;28;1973;-53
2021/12/10 04:52:05;;;;;;;;;;;12.90;99.90;;;;;;5018535;28;896;-53
2021/12/10 04:54:31;;;;;;;;;;;12.90;99.90;;;;;;5018212;28;1276;-53
2021/12/10 04:56:58;;;;;;;;;;;12.80;99.90;;;;;;5018110;28;939;-54
2021/12/10 04:59:26;;;;;;;;;;;12.80;99.90;;;;;;5002331;28;809;-53
2021/12/10 05:01:56;;;;;;;;;;;12.80;99.90;;;;;;5034089;28;1320;-53
2021/12/10 05:04:44;;;;;;;;;;;12.80;99.90;;;;;;5015990;28;719;-54
2021/12/10 05:07:15;;;;;;;;;;;12.80;99.90;;;;;;5019331;28;863;-53
2021/12/10 05:09:41;;;;;;;;;;;12.80;99.90;;;;;;5001693;28;1906;-53
2021/12/10 05:12:07;;;;;;;;;;;12.80;99.90;;;;;;5018942;28;961;-53
2021/12/10 05:14:34;;;;;;;;;;;12.70;99.90;;;;;;4985367;28;922;-53
2021/12/10 05:17:06;;;;;;;;;;;12.70;99.90;;;;;;5018802;28;934;-53
2021/12/10 05:19:42;;;;;;;;;;;12.70;99.90;;;;;;4985116;28;1034;-53
2021/12/10 05:22:09;;;;;;;;;;;12.70;99.90;;;;;;5018557;28;1124;-53
2021/12/10 05:24:35;;;;;;;;;;;12.70;99.90;;;;;;5018348;28;872;-53
2021/12/10 05:27:03;;;;;;;;;;;12.70;99.90;;;;;;5018305;28;839;-53
2021/12/10 05:29:31;;;;;;;;;;;12.70;99.90;;;;;;5018790;28;1975;-53
2021/12/10 05:31:59;;;;;;;;;;;12.70;99.90;;;;;;4984849;28;943;-53
2021/12/10 05:34:25;;;;;;;;;;;12.70;99.90;;;;;;5000921;28;915;-53
2021/12/10 05:36:51;;;;;;;;;;;12.70;99.90;;;;;;5019073;28;873;-52
2021/12/10 05:39:23;;;;;;;;;;;12.70;99.90;;;;;;5033820;28;1079;-51
2021/12/10 05:41:53;;;;;;;;;;;12.60;99.90;;;;;;5001387;28;995;-53
2021/12/10 05:44:19;;;;;;;;;;;12.60;99.90;;;;;;5018545;28;1090;-53
2021/12/10 05:46:45;;;;;;;;;;;12.60;99.90;;;;;;5018601;28;896;-51
2021/12/10 05:49:11;;;;;;;;;;;12.60;99.90;;;;;;5018456;28;1903;-51
2021/12/10 05:51:38;;;;;;;;;;;12.60;99.90;;;;;;5018706;28;850;-53
2021/12/10 05:54:04;;;;;;;;;;;12.60;99.90;;;;;;5018506;28;897;-53
2021/12/10 05:56:30;;;;;;;;;;;12.60;99.90;;;;;;5018134;28;1629;-53
2021/12/10 05:58:58;;;;;;;;;;;12.60;99.90;;;;;;5001141;28;1364;-52
2021/12/10 06:01:25;;;;;;;;;;;12.70;99.90;;;;;;5000644;28;953;-51
2021/12/10 06:03:52;;;;;;;;;;;12.70;99.90;;;;;;5017849;28;893;-51
2021/12/10 06:06:22;;;;;;;;;;;12.80;99.90;;;;;;5018128;28;914;-51
2021/12/10 06:08:48;;;;;;;;;;;12.90;99.90;;;;;;4984432;28;988;-51
2021/12/10 06:11:17;;;;;;;;;;;13.00;99.90;;;;;;5017717;28;1969;-53
2021/12/10 06:13:44;;;;;;;;;;;13.20;99.90;;;;;;5018506;28;893;-53
2021/12/10 06:16:10;;;;;;;;;;;13.30;99.90;;;;;;5017346;28;1318;-53
2021/12/10 06:18:39;;;;;;;;;;;13.50;99.90;;;;;;5015999;28;1397;-53
2021/12/10 06:21:06;;;;;;;;;;;13.70;99.90;;;;;;5017992;28;742;-53
2021/12/10 06:23:32;;;;;;;;;;;13.80;99.90;;;;;;5017821;28;1092;-53
2021/12/10 06:25:59;;;;;;;;;;;14.00;99.90;;;;;;5017597;28;964;-53
2021/12/10 06:28:26;;;;;;;;;;;14.20;99.90;;;;;;5016866;28;1226;-53
2021/12/10 06:30:53;;;;;;;;;;;14.30;99.90;;;;;;4983401;28;1911;-52
2021/12/10 06:33:21;;;;;;;;;;;14.50;99.90;;;;;;5017578;28;881;-51
2021/12/10 06:35:48;;;;;;;;;;;14.60;99.90;;;;;;5000924;28;864;-51
2021/12/10 06:38:17;;;;;;;;;;;14.80;99.90;;;;;;5016215;28;954;-53
2021/12/10 06:40:44;;;;;;;;;;;14.90;99.90;;;;;;5032676;28;1185;-52
2021/12/10 06:43:12;;;;;;;;;;;15.00;99.90;;;;;;5032361;28;1016;-53
2021/12/10 06:45:40;;;;;;;;;;;15.10;99.90;;;;;;5017847;28;894;-52
2021/12/10 06:48:07;;;;;;;;;;;15.10;99.90;;;;;;5016770;28;875;-52
2021/12/10 06:50:36;;;;;;;;;;;15.10;99.90;;;;;;5017396;28;1961;-51
2021/12/10 06:53:03;;;;;;;;;;;15.10;99.90;;;;;;5017440;28;821;-51
2021/12/10 06:55:30;;;;;;;;;;;15.10;99.90;;;;;;4999522;28;1015;-53
2021/12/10 06:57:56;;;;;;;;;;;15.10;99.90;;;;;;5032384;28;941;-53
2021/12/10 07:00:29;;;;;;;;;;;15.10;99.90;;;;;;5017273;28;948;-53
2021/12/10 07:02:58;;;;;;;;;;;15.20;99.90;;;;;;5016205;28;919;-53
2021/12/10 07:05:25;;;;;;;;;;;15.20;99.90;;;;;;5016909;28;877;-53
2021/12/10 07:07:52;;;;;;;;;;;15.20;99.90;;;;;;5017189;28;1127;-53
2021/12/10 07:10:18;;;;;;;;;;;15.30;99.90;;;;;;5017002;28;1910;-53
2021/12/10 07:12:46;;;;;;;;;;;15.30;99.90;;;;;;5000039;28;1665;-53
2021/12/10 07:15:14;;;;;;;;;;;15.40;99.90;;;;;;5017208;28;813;-54
2021/12/10 07:17:43;;;;;;;;;;;15.40;99.90;;;;;;5017127;28;1015;-53
2021/12/10 07:20:13;;;;;;;;;;;15.40;99.90;;;;;;5016758;28;909;-54
2021/12/10 07:22:40;;;;;;;;;;;15.40;99.90;;;;;;5017126;28;880;-53
2021/12/10 07:25:07;;;;;;;;;;;15.50;99.90;;;;;;5015491;28;1390;-53
2021/12/10 07:27:37;;;;;;;;;;;15.50;99.90;;;;;;5017209;28;1416;-53
2021/12/10 07:30:12;;;;;;;;;;;15.50;99.90;;;;;;5016942;28;1968;-54
2021/12/10 07:32:38;;;;;;;;;;;15.50;99.90;;;;;;5016334;28;855;-53
2021/12/10 07:35:06;;;;;;;;;;;15.50;99.90;;;;;;5017032;28;881;-52
2021/12/10 07:37:32;;;;;;;;;;;15.50;99.90;;;;;;4999323;28;908;-52
2021/12/10 07:40:00;;;;;;;;;;;15.50;99.90;;;;;;5016716;28;992;-51
2021/12/10 07:42:27;;;;;;;;;;;15.50;99.90;;;;;;5016693;28;903;-52
2021/12/10 07:44:56;;;;;;;;;;;15.50;99.90;;;;;;5031840;28;1024;-52
2021/12/10 07:47:22;;;;;;;;;;;15.50;99.90;;;;;;5017063;28;852;-51
2021/12/10 07:49:50;;;;;;;;;;;15.50;99.90;;;;;;4982791;28;1887;-51
2021/12/10 07:52:22;;;;;;;;;;;15.50;99.90;;;;;;5016414;28;932;-51
2021/12/10 07:54:49;;;;;;;;;;;15.40;99.90;;;;;;5016063;28;1146;-51
2021/12/10 07:57:16;;;;;;;;;;;15.40;99.90;;;;;;5016655;28;850;-53
2021/12/10 07:59:44;;;;;;;;;;;15.40;99.90;;;;;;4967134;28;947;-53
2021/12/10 08:02:12;;;;;;;;;;;15.40;99.90;;;;;;5016579;28;912;-54
2021/12/10 08:04:38;;;;;;;;;;;15.40;99.90;;;;;;4982845;28;862;-53
2021/12/10 08:07:05;;;;;;;;;;;15.40;99.90;;;;;;5016543;28;860;-52
2021/12/10 08:09:32;;;;;;;;;;;15.30;99.90;;;;;;5016123;28;1918;-51
2021/12/10 08:11:58;;;;;;;;;;;15.30;99.90;;;;;;5016846;28;1198;-51
2021/12/10 08:14:26;;;;;;;;;;;15.30;99.90;;;;;;5015098;28;1045;-51
2021/12/10 08:16:52;;;;;;;;;;;15.20;99.90;;;;;;5016555;28;924;-52
2021/12/10 08:19:18;;;;;;;;;;;15.20;99.90;;;;;;5015055;28;1107;-53
2021/12/10 08:21:44;;;;;;;;;;;15.10;99.90;;;;;;4999201;28;884;-52
2021/12/10 08:24:10;;;;;;;;;;;15.10;99.90;;;;;;4999331;28;969;-51
2021/12/10 08:26:37;;;;;;;;;;;15.10;99.90;;;;;;4983236;28;961;-53
2021/12/10 08:29:06;;;;;;;;;;;15.00;99.90;;;;;;5019854;28;889;-54
2021/12/10 08:31:33;;;;;;;;;;;15.00;99.90;;;;;;5018906;28;1969;-54
2021/12/10 08:34:00;;;;;;;;;;;15.00;99.90;;;;;;5019731;28;898;-53
2021/12/10 08:36:29;;;;;;;;;;;15.00;99.90;;;;;;4979195;28;958;-53
2021/12/10 08:38:55;;;;;;;;;;;15.00;99.90;;;;;;4979194;28;924;-53
2021/12/10 08:41:23;;;;;;;;;;;15.00;99.90;;;;;;4978955;28;913;-53
2021/12/10 08:43:51;;;;;;;;;;;15.00;99.90;;;;;;4960066;28;1022;-54
2021/12/10 08:46:20;;;;;;;;;;;15.00;99.90;;;;;;4973483;28;913;-52
2021/12/10 08:48:48;;;;;;;;;;;15.10;99.90;;;;;;4978420;28;941;-51
2021/12/10 08:51:17;;;;;;;;;;;15.00;99.90;;;;;;4963059;28;1958;-53
2021/12/10 08:53:45;;;;;;;;;;;15.00;99.90;;;;;;4979030;28;948;-53
2021/12/10 08:56:11;;;;;;;;;;;15.00;99.90;;;;;;4978311;28;1181;-52
2021/12/10 08:58:37;;;;;;;;;;;15.00;99.90;;;;;;4978806;28;862;-52
2021/12/10 09:01:05;;;;;;;;;;;15.00;99.90;;;;;;4979918;28;1053;-53
2021/12/10 09:03:33;;;;;;;;;;;15.00;99.90;;;;;;4996618;28;954;-53
2021/12/10 09:05:59;;;;;;;;;;;14.90;99.90;;;;;;4996778;28;871;-53
2021/12/10 09:08:27;;;;;;;;;;;15.00;99.90;;;;;;4973468;28;1058;-53
2021/12/10 09:10:53;;;;;;;;;;;15.10;99.90;;;;;;4978346;28;1988;-52
2021/12/10 09:13:21;;;;;;;;;;;15.30;99.90;;;;;;4984387;28;1053;-51
2021/12/10 09:15:55;;;;;;;;;;;15.40;99.90;;;;;;4993398;28;950;-53
2021/12/10 09:18:21;;;;;;;;;;;15.60;99.90;;;;;;4947643;28;1197;-53
2021/12/10 09:20:50;;;;;;;;;;;15.90;99.90;;;;;;5001734;28;1417;-53
2021/12/10 09:23:19;;;;;;;;;;;16.20;99.90;;;;;;4990665;28;1422;-54
2021/12/10 09:25:47;;;;;;;;;;;16.30;99.90;;;;;;4997388;28;871;-53
2021/12/10 09:28:16;;;;;;;;;;;16.50;99.90;;;;;;4965077;28;949;-51
2021/12/10 09:30:44;;;;;;;;;;;16.50;99.90;;;;;;4963753;28;1899;-51
2021/12/10 09:33:12;;;;;;;;;;;16.20;99.90;;;;;;4982886;28;935;-51
2021/12/10 09:35:40;;;;;;;;;;;16.00;99.90;;;;;;4963110;28;1145;-52
2021/12/10 09:38:08;;;;;;;;;;;16.40;99.90;;;;;;4999449;28;1338;-51
2021/12/10 09:40:37;;;;;;;;;;;16.70;99.90;;;;;;4923466;28;1454;-51
2021/12/10 09:43:04;;;;;;;;;;;16.90;99.90;;;;;;5018685;28;1330;-51
2021/12/10 09:45:32;;;;;;;;;;;17.00;99.90;;;;;;5018993;28;944;-52
2021/12/10 09:47:58;;;;;;;;;;;17.10;99.90;;;;;;5002449;28;1415;-52
2021/12/10 09:50:27;;;;;;;;;;;17.10;99.90;;;;;;5015372;28;1902;-52
2021/12/10 09:52:55;;;;;;;;;;;17.00;99.90;;;;;;5018306;28;1381;-52
2021/12/10 09:55:23;;;;;;;;;;;17.00;99.90;;;;;;4987141;28;1248;-52
2021/12/10 09:57:53;;;;;;;;;;;17.00;99.90;;;;;;5008563;28;1353;-51
2021/12/10 10:00:22;;;;;;;;;;;16.90;99.90;;;;;;4985181;28;1373;-51
2021/12/10 10:02:49;;;;;;;;;;;16.90;99.90;;;;;;5018349;28;805;-51
2021/12/10 10:05:18;;;;;;;;;;;16.90;99.90;;;;;;5018420;28;880;-51
2021/12/10 10:07:51;;;;;;;;;;;16.90;99.90;;;;;;4968287;28;925;-52
2021/12/10 10:10:18;;;;;;;;;;;16.90;99.90;;;;;;5017678;28;1910;-52
2021/12/10 10:12:48;;;;;;;;;;;16.90;99.90;;;;;;5017992;28;1141;-53
2021/12/10 10:15:22;;;;;;;;;;;17.00;99.90;;;;;;5017869;28;1255;-54
2021/12/10 10:17:48;;;;;;;;;;;16.90;99.90;;;;;;5018007;28;1267;-54
2021/12/10 10:20:17;;;;;;;;;;;16.80;99.90;;;;;;5017913;28;846;-54
2021/12/10 10:22:44;;;;;;;;;;;16.50;99.90;;;;;;4961398;28;1430;-55
2021/12/10 10:25:12;;;;;;;;;;;16.30;99.90;;;;;;4977120;28;998;-54
2021/12/10 10:27:39;;;;;;;;;;;16.20;99.90;;;;;;4977103;28;878;-55
2021/12/10 10:30:09;;;;;;;;;;;16.10;99.90;;;;;;4977107;28;1907;-54
2021/12/10 10:32:35;;;;;;;;;;;15.90;99.90;;;;;;4977164;28;880;-54
2021/12/10 10:35:05;;;;;;;;;;;15.80;99.90;;;;;;4973462;28;1057;-54
2021/12/10 10:37:32;;;;;;;;;;;15.80;99.90;;;;;;4974250;28;998;-54
2021/12/10 10:40:05;;;;;;;;;;;15.90;99.90;;;;;;4975876;28;901;-54
2021/12/10 10:42:32;;;;;;;;;;;16.10;99.90;;;;;;4955675;28;887;-54
2021/12/10 10:45:02;;;;;;;;;;;16.20;99.90;;;;;;4912879;28;983;-54
2021/12/10 10:47:29;;;;;;;;;;;16.20;99.90;;;;;;4928608;28;1072;-53
2021/12/10 10:50:14;;;;;;;;;;;16.30;99.90;;;;;;4945769;28;1903;-53
2021/12/10 10:52:43;;;;;;;;;;;16.40;99.90;;;;;;4975225;28;936;-53
2021/12/10 10:55:28;;;;;;;;;;;16.40;99.90;;;;;;4975469;28;1095;-52
2021/12/10 10:57:59;;;;;;;;;;;16.40;99.90;;;;;;4976521;28;1005;-53
2021/12/10 11:00:35;;;;;;;;;;;16.50;99.90;;;;;;4976796;28;1096;-52
2021/12/10 11:03:09;;;;;;;;;;;16.40;99.90;;;;;;4976688;28;813;-52
2021/12/10 11:05:44;;;;;;;;;;;16.40;99.90;;;;;;4977477;28;946;-51
2021/12/10 11:08:12;;;;;;;;;;;16.40;99.90;;;;;;4997953;28;1056;-51
2021/12/10 11:10:41;;;;;;;;;;;16.40;99.90;;;;;;4997337;28;1968;-52
2021/12/10 11:13:09;;;;;;;;;;;16.40;99.90;;;;;;5013389;28;889;-51
2021/12/10 11:15:35;;;;;;;;;;;16.40;99.90;;;;;;4997560;28;848;-52
2021/12/10 11:18:02;;;;;;;;;;;16.30;99.90;;;;;;4995058;28;1022;-52
2021/12/10 11:20:42;;;;;;;;;;;16.30;99.90;;;;;;4995615;28;992;-51
2021/12/10 11:23:15;;;;;;;;;;;16.20;99.90;;;;;;4979346;28;972;-52
2021/12/10 11:25:43;;;;;;;;;;;16.20;99.90;;;;;;4995069;28;1283;-52
2021/12/10 11:28:16;;;;;;;;;;;16.20;99.90;;;;;;4994931;28;990;-52
2021/12/10 11:30:45;;;;;;;;;;;16.10;99.90;;;;;;4991407;28;1961;-53
2021/12/10 11:33:13;;;;;;;;;;;16.10;99.90;;;;;;4995789;28;934;-52
2021/12/10 11:36:00;;;;;;;;;;;16.10;99.90;;;;;;4995507;28;905;-53
2021/12/10 11:38:31;;;;;;;;;;;16.00;99.90;;;;;;4978659;28;1740;-52
2021/12/10 11:41:04;;;;;;;;;;;16.00;99.90;;;;;;4975988;28;940;-52
2021/12/10 11:43:54;;;;;;;;;;;16.00;99.90;;;;;;4995146;28;839;-52
2021/12/10 11:49:27;;;;;;;;;;;15.90;99.90;;;;;;4937397;29;1128;-53
2021/12/10 11:52:25;;;;;;;;;;;15.80;99.90;;;;;;4936848;29;1903;-52
2021/12/10 11:54:53;;;;;;;;;;;15.80;99.90;;;;;;4919668;29;1085;-53
2021/12/10 11:57:39;;;;;;;;;;;15.80;99.90;;;;;;4935574;29;1266;-53
2021/12/10 12:00:10;;;;;;;;;;;15.80;99.90;;;;;;4934479;29;1072;-52
2021/12/10 12:02:58;;;;;;;;;;;15.80;99.90;;;;;;4939910;29;904;-52
2021/12/10 12:05:32;;;;;;;;;;;15.90;99.90;;;;;;4940882;29;880;-53
2021/12/10 12:08:00;;;;;;;;;;;15.90;99.90;;;;;;4941371;29;1103;-52
2021/12/10 12:10:33;;;;;;;;;;;16.00;99.90;;;;;;4940928;29;1910;-52
2021/12/10 12:13:03;;;;;;;;;;;16.00;99.90;;;;;;4940891;29;933;-52
2021/12/10 12:15:31;;;;;;;;;;;16.00;99.90;;;;;;4940513;29;876;-53
2021/12/10 12:18:14;;;;;;;;;;;16.10;99.90;;;;;;4940237;29;1292;-53
2021/12/10 12:26:52;;;;;;;;;;;16.00;99.90;;;;;;4977332;28;967;-51
2021/12/10 12:29:18;;;;;;;;;;;16.00;99.90;;;;;;5000551;28;910;-52
2021/12/10 12:31:46;;;;;;;;;;;15.90;99.90;;;;;;5000564;28;1978;-52
2021/12/10 12:34:17;;;;;;;;;;;15.80;99.90;;;;;;5000174;28;926;-53
2021/12/10 12:37:10;;;;;;;;;;;15.80;99.90;;;;;;4999864;28;939;-53
2021/12/10 12:39:39;;;;;;;;;;;15.80;99.90;;;;;;4940869;29;1118;-52
2021/12/10 12:42:18;;;;;;;;;;;15.70;99.90;;;;;;4940318;29;1059;-52
2021/12/10 12:44:47;;;;;;;;;;;15.70;99.90;;;;;;4940621;29;966;-51
2021/12/10 12:47:22;;;;;;;;;;;15.70;99.90;;;;;;4908624;29;1125;-51
2021/12/10 12:49:49;;;;;;;;;;;15.60;99.90;;;;;;4940042;29;974;-53
2021/12/10 12:52:34;;;;;;;;;;;15.50;99.90;;;;;;4940443;29;1972;-53
2021/12/10 12:55:07;;;;;;;;;;;15.50;99.90;;;;;;4938282;29;1394;-52
2021/12/10 12:57:52;;;;;;;;;;;15.50;99.90;;;;;;4942213;29;1031;-52
2021/12/10 13:00:21;;;;;;;;;;;15.50;99.90;;;;;;4957931;29;1277;-51
2021/12/10 13:02:50;;;;;;;;;;;15.40;99.90;;;;;;4910161;29;932;-53
2021/12/10 13:05:19;;;;;;;;;;;15.40;99.90;;;;;;4957817;29;847;-52
2021/12/10 13:07:46;;;;;;;;;;;15.40;99.90;;;;;;4957822;29;995;-51
2021/12/10 13:10:19;;;;;;;;;;;15.40;99.90;;;;;;4957588;29;1903;-53
2021/12/10 13:13:06;;;;;;;;;;;15.40;99.90;;;;;;4947621;28;1540;-53
2021/12/10 13:15:33;;;;;;;;;;;15.40;99.90;;;;;;4946128;28;1096;-52
2021/12/10 13:18:06;;;;;;;;;;;15.40;99.90;;;;;;4999824;28;1173;-51
2021/12/10 13:20:35;;;;;;;;;;;15.40;99.90;;;;;;4999739;28;894;-54
2021/12/10 13:23:02;;;;;;;;;;;15.50;99.90;;;;;;4993880;28;922;-53
2021/12/10 13:25:30;;;;;;;;;;;15.40;99.90;;;;;;4995046;28;801;-52
2021/12/10 13:28:00;;;;;;;;;;;15.50;99.90;;;;;;4999531;28;1039;-53
2021/12/10 13:30:30;;;;;;;;;;;15.40;99.90;;;;;;4981962;28;2002;-53
2021/12/10 13:32:57;;;;;;;;;;;15.50;99.90;;;;;;4994894;28;1233;-52
2021/12/10 13:35:25;;;;;;;;;;;15.40;99.90;;;;;;5014183;28;950;-55
2021/12/10 13:37:53;;;;;;;;;;;15.40;99.90;;;;;;4981827;28;940;-54
2021/12/10 13:40:21;;;;;;;;;;;15.40;99.90;;;;;;4999017;28;952;-52
2021/12/10 13:42:48;;;;;;;;;;;15.50;99.90;;;;;;5014459;28;861;-53
2021/12/10 13:45:19;;;;;;;;;;;15.50;99.90;;;;;;4999035;28;1050;-52
2021/12/10 13:47:51;;;;;;;;;;;15.50;99.90;;;;;;4997600;28;896;-53
2021/12/10 13:50:22;;;;;;;;;;;15.50;99.90;;;;;;4998440;28;1981;-53
2021/12/10 13:52:55;;;;;;;;;;;15.60;99.90;;;;;;5004559;28;1208;-52
2021/12/10 13:55:27;;;;;;;;;;;15.60;99.90;;;;;;4979239;28;1223;-52
2021/12/10 13:58:13;;;;;;;;;;;15.60;99.90;;;;;;4998692;28;960;-52
2021/12/10 14:00:42;;;;;;;;;;;15.70;99.90;;;;;;4999383;28;878;-52
2021/12/10 14:03:39;;;;;;;;;;;15.70;99.90;;;;;;4999219;28;783;-52
2021/12/10 14:06:09;;;;;;;;;;;15.70;99.90;;;;;;5016793;28;825;-53
2021/12/10 14:08:36;;;;;;;;;;;15.70;99.90;;;;;;5017240;28;900;-53
2021/12/10 14:11:15;;;;;;;;;;;15.70;99.90;;;;;;4995013;28;1960;-54
2021/12/10 14:13:41;;;;;;;;;;;15.70;99.90;;;;;;4996584;28;817;-52
2021/12/10 14:16:11;;;;;;;;;;;15.60;99.90;;;;;;5013833;28;1363;-52
2021/12/10 14:18:45;;;;;;;;;;;15.50;99.90;;;;;;4999921;28;1577;-52
2021/12/10 14:21:13;;;;;;;;;;;15.50;99.90;;;;;;4998266;28;868;-52
2021/12/10 14:23:42;;;;;;;;;;;15.60;99.90;;;;;;4980302;28;891;-53
2021/12/10 14:26:15;;;;;;;;;;;15.70;99.90;;;;;;4997888;28;912;-53
2021/12/10 14:28:51;;;;;;;;;;;15.80;99.90;;;;;;5002775;28;826;-53
2021/12/10 14:31:21;;;;;;;;;;;16.00;99.90;;;;;;4998319;28;1879;-52
2021/12/10 14:33:50;;;;;;;;;;;16.20;99.90;;;;;;5010987;28;1218;-52
2021/12/10 14:36:17;;;;;;;;;;;16.30;99.90;;;;;;4998254;28;947;-53
2021/12/10 14:38:53;;;;;;;;;;;16.40;99.90;;;;;;5004973;28;1190;-53
2021/12/10 14:41:28;;;;;;;;;;;16.50;99.90;;;;;;4997472;28;1140;-53
2021/12/10 14:44:02;;;;;;;;;;;16.50;99.90;;;;;;4994548;28;1056;-53
2021/12/10 14:46:47;;;;;;;;;;;16.60;99.90;;;;;;4996496;28;919;-52
2021/12/10 14:49:25;;;;;;;;;;;16.60;99.90;;;;;;5012343;28;1027;-52
2021/12/10 14:52:10;;;;;;;;;;;16.60;99.90;;;;;;4998020;28;1902;-52
2021/12/10 14:55:00;;;;;;;;;;;16.50;99.90;;;;;;5012759;28;1003;-52
2021/12/10 14:57:44;;;;;;;;;;;16.50;99.90;;;;;;4987023;28;1168;-52
2021/12/10 15:00:30;;;;;;;;;;;16.50;99.90;;;;;;4997611;28;1292;-52
2021/12/10 15:02:58;;;;;;;;;;;16.50;99.90;;;;;;4997949;28;868;-53
2021/12/10 15:05:31;;;;;;;;;;;16.50;99.90;;;;;;5000030;28;1200;-53
2021/12/10 15:08:38;;;;;;;;;;;16.40;99.90;;;;;;5010217;28;1166;-52
2021/12/10 15:11:25;;;;;;;;;;;16.40;99.90;;;;;;5012196;28;1890;-53
2021/12/10 15:14:26;;;;;;;;;;;16.30;99.90;;;;;;5011441;28;1050;-53